sensor_id;sensor_type;location;lat;lon;timestamp;pressure;altitude;pressure_sealevel;temperature;humidity
84795;BME280;75026;49.184;16.564;2023-12-28T00:02:18;99133.41;;;20.54;55.93
84795;BME280;75026;49.184;16.564;2023-12-28T00:05:19;99138.22;;;20.54;56.18
84795;BME280;75026;49.184;16.564;2023-12-28T00:08:20;99137.00;;;20.55;56.13
84795;BME280;75026;49.184;16.564;2023-12-28T00:11:20;99130.25;;;20.52;56.16
84795;BME280;75026;49.184;16.564;2023-12-28T00:14:21;99130.16;;;20.56;55.89
84795;BME280;75026;49.184;16.564;2023-12-28T00:17:22;99125.44;;;20.53;55.87
84795;BME280;75026;49.184;16.564;2023-12-28T00:20:23;99119.06;;;20.52;55.92
84795;BME280;75026;49.184;16.564;2023-12-28T00:23:23;99117.03;;;20.53;55.94
84795;BME280;75026;49.184;16.564;2023-12-28T00:26:24;99119.84;;;20.53;56.13
84795;BME280;75026;49.184;16.564;2023-12-28T00:29:25;99123.88;;;20.52;56.11
84795;BME280;75026;49.184;16.564;2023-12-28T00:32:25;99120.63;;;20.53;55.96
84795;BME280;75026;49.184;16.564;2023-12-28T00:35:26;99133.81;;;20.53;55.98
84795;BME280;75026;49.184;16.564;2023-12-28T00:38:27;99129.47;;;20.52;56.10
84795;BME280;75026;49.184;16.564;2023-12-28T00:41:27;99134.19;;;20.55;55.86
84795;BME280;75026;49.184;16.564;2023-12-28T00:44:28;99132.50;;;20.57;55.82
84795;BME280;75026;49.184;16.564;2023-12-28T00:47:29;99123.78;;;20.55;55.77
84795;BME280;75026;49.184;16.564;2023-12-28T00:50:30;99123.88;;;20.52;56.04
84795;BME280;75026;49.184;16.564;2023-12-28T00:53:32;99113.06;;;20.54;56.06
84795;BME280;75026;49.184;16.564;2023-12-28T00:56:32;99126.22;;;20.53;55.87
84795;BME280;75026;49.184;16.564;2023-12-28T00:59:33;99124.56;;;20.56;56.02
84795;BME280;75026;49.184;16.564;2023-12-28T01:02:34;99130.94;;;20.56;55.81
84795;BME280;75026;49.184;16.564;2023-12-28T01:05:34;99121.44;;;20.54;55.88
84795;BME280;75026;49.184;16.564;2023-12-28T01:08:35;99129.84;;;20.54;55.92
84795;BME280;75026;49.184;16.564;2023-12-28T01:11:36;99114.25;;;20.53;55.85
84795;BME280;75026;49.184;16.564;2023-12-28T01:14:37;99103.06;;;20.53;55.91
84795;BME280;75026;49.184;16.564;2023-12-28T01:17:37;99099.06;;;20.54;55.98
84795;BME280;75026;49.184;16.564;2023-12-28T01:20:38;99089.06;;;20.53;55.94
84795;BME280;75026;49.184;16.564;2023-12-28T01:23:39;99081.47;;;20.53;55.98
84795;BME280;75026;49.184;16.564;2023-12-28T01:26:40;99079.13;;;20.52;55.88
84795;BME280;75026;49.184;16.564;2023-12-28T01:29:40;99080.28;;;20.54;55.78
84795;BME280;75026;49.184;16.564;2023-12-28T01:32:41;99090.22;;;20.55;55.83
84795;BME280;75026;49.184;16.564;2023-12-28T01:35:42;99075.09;;;20.53;55.84
84795;BME280;75026;49.184;16.564;2023-12-28T01:38:43;99072.66;;;20.55;55.94
84795;BME280;75026;49.184;16.564;2023-12-28T01:41:44;99079.13;;;20.52;55.84
84795;BME280;75026;49.184;16.564;2023-12-28T01:44:46;99095.13;;;20.51;55.92
84795;BME280;75026;49.184;16.564;2023-12-28T01:47:48;99102.28;;;20.52;55.95
84795;BME280;75026;49.184;16.564;2023-12-28T01:50:49;99103.06;;;20.53;55.95
84795;BME280;75026;49.184;16.564;2023-12-28T01:53:51;99114.25;;;20.53;55.94
84795;BME280;75026;49.184;16.564;2023-12-28T01:56:52;99115.84;;;20.54;55.82
84795;BME280;75026;49.184;16.564;2023-12-28T01:59:53;99111.13;;;20.51;55.80
84795;BME280;75026;49.184;16.564;2023-12-28T02:02:55;99107.44;;;20.54;55.74
84795;BME280;75026;49.184;16.564;2023-12-28T02:05:57;99097.47;;;20.53;55.84
84795;BME280;75026;49.184;16.564;2023-12-28T02:08:58;99107.53;;;20.50;55.95
84795;BME280;75026;49.184;16.564;2023-12-28T02:11:58;99103.06;;;20.53;55.89
84795;BME280;75026;49.184;16.564;2023-12-28T02:14:59;99093.47;;;20.54;55.77
84795;BME280;75026;49.184;16.564;2023-12-28T02:18:17;99094.03;;;20.45;55.71
84795;BME280;75026;49.184;16.564;2023-12-28T02:21:21;99080.69;;;20.53;55.72
84795;BME280;75026;49.184;16.564;2023-12-28T02:24:22;99078.34;;;20.51;55.83
84795;BME280;75026;49.184;16.564;2023-12-28T02:27:23;99083.06;;;20.54;55.63
84795;BME280;75026;49.184;16.564;2023-12-28T02:30:24;99079.13;;;20.52;55.76
84795;BME280;75026;49.184;16.564;2023-12-28T02:33:46;99071.56;;;20.49;55.66
84795;BME280;75026;49.184;16.564;2023-12-28T02:36:49;99063.91;;;20.53;55.81
84795;BME280;75026;49.184;16.564;2023-12-28T02:39:51;99058.69;;;20.55;55.82
84795;BME280;75026;49.184;16.564;2023-12-28T02:42:52;99067.06;;;20.55;55.75
84795;BME280;75026;49.184;16.564;2023-12-28T02:45:53;99069.50;;;20.53;55.72
84795;BME280;75026;49.184;16.564;2023-12-28T02:48:54;99077.56;;;20.51;55.96
84795;BME280;75026;49.184;16.564;2023-12-28T02:51:57;99083.94;;;20.51;55.72
84795;BME280;75026;49.184;16.564;2023-12-28T02:54:58;99079.50;;;20.54;55.69
84795;BME280;75026;49.184;16.564;2023-12-28T02:57:59;99079.50;;;20.54;55.57
84795;BME280;75026;49.184;16.564;2023-12-28T03:00:59;99076.31;;;20.52;55.72
84795;BME280;75026;49.184;16.564;2023-12-28T03:04:00;99076.78;;;20.50;55.71
84795;BME280;75026;49.184;16.564;2023-12-28T03:07:01;99069.16;;;20.51;55.74
84795;BME280;75026;49.184;16.564;2023-12-28T03:10:02;99063.91;;;20.53;55.76
84795;BME280;75026;49.184;16.564;2023-12-28T03:13:05;99068.63;;;20.56;55.67
84795;BME280;75026;49.184;16.564;2023-12-28T03:16:06;99066.72;;;20.53;55.74
84795;BME280;75026;49.184;16.564;2023-12-28T03:19:07;99072.31;;;20.53;55.81
84795;BME280;75026;49.184;16.564;2023-12-28T03:22:08;99064.34;;;20.51;55.68
84795;BME280;75026;49.184;16.564;2023-12-28T03:25:09;99065.50;;;20.54;55.63
84795;BME280;75026;49.184;16.564;2023-12-28T03:28:09;99075.09;;;20.53;55.76
84795;BME280;75026;49.184;16.564;2023-12-28T03:31:10;99073.16;;;20.50;55.80
84795;BME280;75026;49.184;16.564;2023-12-28T03:34:11;99079.13;;;20.52;55.61
84795;BME280;75026;49.184;16.564;2023-12-28T03:37:11;99095.47;;;20.53;55.61
84795;BME280;75026;49.184;16.564;2023-12-28T03:40:13;99078.25;;;20.55;55.50
84795;BME280;75026;49.184;16.564;2023-12-28T03:43:13;99089.06;;;20.53;55.63
84795;BME280;75026;49.184;16.564;2023-12-28T03:46:14;99086.66;;;20.55;55.59
84795;BME280;75026;49.184;16.564;2023-12-28T03:49:19;99080.34;;;20.51;55.73
84795;BME280;75026;49.184;16.564;2023-12-28T03:52:20;99075.19;;;20.49;55.66
84795;BME280;75026;49.184;16.564;2023-12-28T03:55:20;99079.97;;;20.49;55.72
84795;BME280;75026;49.184;16.564;2023-12-28T03:58:21;99094.34;;;20.51;55.65
84795;BME280;75026;49.184;16.564;2023-12-28T04:01:22;99088.75;;;20.51;55.72
84795;BME280;75026;49.184;16.564;2023-12-28T04:04:23;99095.03;;;20.55;55.56
84795;BME280;75026;49.184;16.564;2023-12-28T04:07:24;99096.69;;;20.52;55.51
84795;BME280;75026;49.184;16.564;2023-12-28T04:10:29;99087.16;;;20.50;55.44
84795;BME280;75026;49.184;16.564;2023-12-28T04:13:31;99093.56;;;20.50;55.67
84795;BME280;75026;49.184;16.564;2023-12-28T04:16:32;99103.94;;;20.50;55.74
84795;BME280;75026;49.184;16.564;2023-12-28T04:19:33;99109.88;;;20.52;55.46
84795;BME280;75026;49.184;16.564;2023-12-28T04:22:34;99109.09;;;20.51;55.68
84795;BME280;75026;49.184;16.564;2023-12-28T04:25:34;99102.34;;;20.49;55.69
84795;BME280;75026;49.184;16.564;2023-12-28T04:28:35;99095.91;;;20.52;55.62
84795;BME280;75026;49.184;16.564;2023-12-28T04:31:42;99093.16;;;20.48;55.65
84795;BME280;75026;49.184;16.564;2023-12-28T04:34:43;99095.53;;;20.50;55.60
84795;BME280;75026;49.184;16.564;2023-12-28T04:37:43;99103.16;;;20.49;55.64
84795;BME280;75026;49.184;16.564;2023-12-28T04:40:44;99093.56;;;20.50;55.64
84795;BME280;75026;49.184;16.564;2023-12-28T04:43:44;99098.34;;;20.50;55.76
84795;BME280;75026;49.184;16.564;2023-12-28T04:46:45;99095.91;;;20.52;55.51
84795;BME280;75026;49.184;16.564;2023-12-28T04:49:46;99101.53;;;20.48;55.68
84795;BME280;75026;49.184;16.564;2023-12-28T04:52:47;99105.56;;;20.47;55.68
84795;BME280;75026;49.184;16.564;2023-12-28T04:55:47;99093.94;;;20.49;55.81
84795;BME280;75026;49.184;16.564;2023-12-28T04:58:48;99098.34;;;20.50;55.66
84795;BME280;75026;49.184;16.564;2023-12-28T05:01:48;99077.56;;;20.51;55.69
84795;BME280;75026;49.184;16.564;2023-12-28T05:04:50;99095.13;;;20.51;55.60
84795;BME280;75026;49.184;16.564;2023-12-28T05:07:50;99096.34;;;20.50;55.55
84795;BME280;75026;49.184;16.564;2023-12-28T05:10:51;99112.69;;;20.52;55.52
84795;BME280;75026;49.184;16.564;2023-12-28T05:13:52;99107.09;;;20.52;55.60
84795;BME280;75026;49.184;16.564;2023-12-28T05:16:54;99111.91;;;20.51;55.51
84795;BME280;75026;49.184;16.564;2023-12-28T05:19:54;99103.06;;;20.53;55.58
84795;BME280;75026;49.184;16.564;2023-12-28T05:22:56;99105.53;;;20.51;55.62
84795;BME280;75026;49.184;16.564;2023-12-28T05:25:57;99116.72;;;20.51;55.58
84795;BME280;75026;49.184;16.564;2023-12-28T05:28:58;99110.72;;;20.49;55.65
84795;BME280;75026;49.184;16.564;2023-12-28T05:31:58;99109.53;;;20.50;55.68
84795;BME280;75026;49.184;16.564;2023-12-28T05:35:01;99108.31;;;20.51;55.56
84795;BME280;75026;49.184;16.564;2023-12-28T05:38:02;99105.53;;;20.51;55.57
84795;BME280;75026;49.184;16.564;2023-12-28T05:41:03;99102.34;;;20.49;55.66
84795;BME280;75026;49.184;16.564;2023-12-28T05:44:03;99106.31;;;20.51;55.53
84795;BME280;75026;49.184;16.564;2023-12-28T05:47:04;99111.91;;;20.51;55.49
84795;BME280;75026;49.184;16.564;2023-12-28T05:50:05;99125.88;;;20.51;55.53
84795;BME280;75026;49.184;16.564;2023-12-28T05:53:06;99119.09;;;20.49;55.57
84795;BME280;75026;49.184;16.564;2023-12-28T05:56:08;99123.88;;;20.52;55.45
84795;BME280;75026;49.184;16.564;2023-12-28T05:59:09;99130.28;;;20.49;55.43
84795;BME280;75026;49.184;16.564;2023-12-28T06:02:09;99135.88;;;20.49;55.67
84795;BME280;75026;49.184;16.564;2023-12-28T06:05:10;99141.47;;;20.49;55.67
84795;BME280;75026;49.184;16.564;2023-12-28T06:08:11;99130.69;;;20.51;55.69
84795;BME280;75026;49.184;16.564;2023-12-28T06:11:12;99133.50;;;20.51;55.38
84795;BME280;75026;49.184;16.564;2023-12-28T06:14:13;99136.28;;;20.51;55.49
84795;BME280;75026;49.184;16.564;2023-12-28T06:17:14;99141.94;;;20.47;55.77
84795;BME280;75026;49.184;16.564;2023-12-28T06:20:15;99139.09;;;20.51;55.62
84795;BME280;75026;49.184;16.564;2023-12-28T06:23:16;99115.94;;;20.50;55.46
84795;BME280;75026;49.184;16.564;2023-12-28T06:26:17;99118.31;;;20.48;55.61
84795;BME280;75026;49.184;16.564;2023-12-28T06:29:18;99131.91;;;20.50;55.42
84795;BME280;75026;49.184;16.564;2023-12-28T06:32:18;99118.31;;;20.48;55.51
84795;BME280;75026;49.184;16.564;2023-12-28T06:35:19;99120.72;;;20.50;55.55
84795;BME280;75026;49.184;16.564;2023-12-28T06:38:20;99116.72;;;20.51;55.51
84795;BME280;75026;49.184;16.564;2023-12-28T06:41:21;99132.25;;;20.52;55.43
84795;BME280;75026;49.184;16.564;2023-12-28T06:44:21;99143.06;;;20.50;55.74
84795;BME280;75026;49.184;16.564;2023-12-28T06:47:22;99135.06;;;20.52;55.27
84795;BME280;75026;49.184;16.564;2023-12-28T06:50:23;99119.94;;;20.49;55.56
84795;BME280;75026;49.184;16.564;2023-12-28T06:53:23;99131.09;;;20.49;55.56
84795;BME280;75026;49.184;16.564;2023-12-28T06:56:25;99137.47;;;20.50;55.42
84795;BME280;75026;49.184;16.564;2023-12-28T06:59:25;99148.66;;;20.50;55.55
84795;BME280;75026;49.184;16.564;2023-12-28T07:02:26;99143.88;;;20.50;55.50
84795;BME280;75026;49.184;16.564;2023-12-28T07:05:27;99153.47;;;20.49;55.45
84795;BME280;75026;49.184;16.564;2023-12-28T07:08:28;99159.44;;;20.51;55.28
84795;BME280;75026;49.184;16.564;2023-12-28T07:11:29;99158.25;;;20.49;55.41
84795;BME280;75026;49.184;16.564;2023-12-28T07:14:29;99159.06;;;20.49;55.48
84795;BME280;75026;49.184;16.564;2023-12-28T07:17:30;99153.41;;;20.53;55.34
84795;BME280;75026;49.184;16.564;2023-12-28T07:20:31;99143.06;;;20.50;55.54
84795;BME280;75026;49.184;16.564;2023-12-28T07:23:32;99159.84;;;20.50;55.60
84795;BME280;75026;49.184;16.564;2023-12-28T07:26:32;99158.25;;;20.49;55.46
84795;BME280;75026;49.184;16.564;2023-12-28T07:29:33;99174.25;;;20.48;55.36
84795;BME280;75026;49.184;16.564;2023-12-28T07:32:33;99175.03;;;20.49;55.39
84795;BME280;75026;49.184;16.564;2023-12-28T07:35:35;99178.22;;;20.51;55.49
84795;BME280;75026;49.184;16.564;2023-12-28T07:38:35;99193.00;;;20.51;55.50
84795;BME280;75026;49.184;16.564;2023-12-28T07:41:36;99192.63;;;20.49;55.38
84795;BME280;75026;49.184;16.564;2023-12-28T07:44:37;99194.22;;;20.50;55.45
84795;BME280;75026;49.184;16.564;2023-12-28T07:47:38;99181.50;;;20.46;55.69
84795;BME280;75026;49.184;16.564;2023-12-28T07:50:38;99196.22;;;20.50;55.34
84795;BME280;75026;49.184;16.564;2023-12-28T07:53:39;99200.66;;;20.47;55.65
84795;BME280;75026;49.184;16.564;2023-12-28T07:56:39;99204.22;;;20.48;55.43
84795;BME280;75026;49.184;16.564;2023-12-28T07:59:40;99207.78;;;20.52;55.35
84795;BME280;75026;49.184;16.564;2023-12-28T08:02:41;99198.59;;;20.51;55.29
84795;BME280;75026;49.184;16.564;2023-12-28T08:05:42;99203.75;;;20.53;55.29
84795;BME280;75026;49.184;16.564;2023-12-28T08:08:43;99205.75;;;20.52;55.13
84795;BME280;75026;49.184;16.564;2023-12-28T08:11:43;99206.19;;;20.51;55.19
84795;BME280;75026;49.184;16.564;2023-12-28T08:14:44;99203.41;;;20.51;55.40
84795;BME280;75026;49.184;16.564;2023-12-28T08:17:45;99202.19;;;20.52;55.50
84795;BME280;75026;49.184;16.564;2023-12-28T08:20:45;99208.22;;;20.50;55.35
84795;BME280;75026;49.184;16.564;2023-12-28T08:23:46;99207.78;;;20.52;55.37
84795;BME280;75026;49.184;16.564;2023-12-28T08:26:47;99209.41;;;20.49;55.44
84795;BME280;75026;49.184;16.564;2023-12-28T08:29:48;99198.28;;;20.46;55.37
84795;BME280;75026;49.184;16.564;2023-12-28T08:32:48;99198.63;;;20.48;55.45
84795;BME280;75026;49.184;16.564;2023-12-28T08:35:49;99207.41;;;20.50;55.38
84795;BME280;75026;49.184;16.564;2023-12-28T08:38:49;99203.88;;;20.46;55.57
84795;BME280;75026;49.184;16.564;2023-12-28T08:41:50;99203.41;;;20.51;55.54
84795;BME280;75026;49.184;16.564;2023-12-28T08:44:51;99203.81;;;20.49;55.31
84795;BME280;75026;49.184;16.564;2023-12-28T08:47:52;99201.81;;;20.50;55.47
84795;BME280;75026;49.184;16.564;2023-12-28T08:50:53;99195.06;;;20.47;55.55
84795;BME280;75026;49.184;16.564;2023-12-28T08:53:54;99199.81;;;20.50;55.27
84795;BME280;75026;49.184;16.564;2023-12-28T08:56:54;99197.50;;;20.45;55.55
84795;BME280;75026;49.184;16.564;2023-12-28T08:59:55;99204.66;;;20.46;55.56
84795;BME280;75026;49.184;16.564;2023-12-28T09:02:55;99195.47;;;20.46;55.25
84795;BME280;75026;49.184;16.564;2023-12-28T09:05:56;99198.28;;;20.46;55.68
84795;BME280;75026;49.184;16.564;2023-12-28T09:08:57;99203.00;;;20.49;55.57
84795;BME280;75026;49.184;16.564;2023-12-28T09:11:58;99208.59;;;20.49;55.48
84795;BME280;75026;49.184;16.564;2023-12-28T09:14:59;99206.25;;;20.47;55.27
84795;BME280;75026;49.184;16.564;2023-12-28T09:18:00;99205.81;;;20.49;55.48
84795;BME280;75026;49.184;16.564;2023-12-28T09:21:00;99203.06;;;20.45;55.49
84795;BME280;75026;49.184;16.564;2023-12-28T09:24:01;99194.63;;;20.49;55.38
84795;BME280;75026;49.184;16.564;2023-12-28T09:27:03;99191.81;;;20.49;55.34
84795;BME280;75026;49.184;16.564;2023-12-28T09:30:04;99189.47;;;20.47;55.41
84795;BME280;75026;49.184;16.564;2023-12-28T09:33:05;99182.59;;;20.52;55.17
84795;BME280;75026;49.184;16.564;2023-12-28T09:36:06;99174.25;;;20.48;55.33
84795;BME280;75026;49.184;16.564;2023-12-28T09:39:08;99163.06;;;20.48;55.33
84795;BME280;75026;49.184;16.564;2023-12-28T09:42:17;99149.47;;;20.50;55.08
84795;BME280;75026;49.184;16.564;2023-12-28T09:45:18;99145.13;;;20.46;55.38
84795;BME280;75026;49.184;16.564;2023-12-28T09:48:20;99158.13;;;20.56;54.98
84795;BME280;75026;49.184;16.564;2023-12-28T09:51:22;99165.44;;;20.50;55.26
84795;BME280;75026;49.184;16.564;2023-12-28T09:54:22;99166.25;;;20.50;55.19
84795;BME280;75026;49.184;16.564;2023-12-28T09:57:23;99148.31;;;20.48;55.29
84795;BME280;75026;49.184;16.564;2023-12-28T10:00:24;99146.75;;;20.47;55.45
84795;BME280;75026;49.184;16.564;2023-12-28T10:03:24;99154.31;;;20.46;55.42
84795;BME280;75026;49.184;16.564;2023-12-28T10:06:25;99150.69;;;20.49;55.33
84795;BME280;75026;49.184;16.564;2023-12-28T10:09:26;99148.66;;;20.50;55.22
84795;BME280;75026;49.184;16.564;2023-12-28T10:12:27;99139.91;;;20.48;55.23
84795;BME280;75026;49.184;16.564;2023-12-28T10:15:30;99135.50;;;20.50;55.45
84795;BME280;75026;49.184;16.564;2023-12-28T10:18:31;99142.34;;;20.46;55.35
84795;BME280;75026;49.184;16.564;2023-12-28T10:21:32;99139.13;;;20.47;55.33
84795;BME280;75026;49.184;16.564;2023-12-28T10:24:33;99143.06;;;20.50;55.37
84795;BME280;75026;49.184;16.564;2023-12-28T10:27:40;99140.28;;;20.50;55.33
84795;BME280;75026;49.184;16.564;2023-12-28T10:30:42;99138.69;;;20.49;55.22
84795;BME280;75026;49.184;16.564;2023-12-28T10:33:43;99151.47;;;20.50;55.36
84795;BME280;75026;49.184;16.564;2023-12-28T10:36:47;99140.78;;;20.45;55.30
84795;BME280;75026;49.184;16.564;2023-12-28T10:39:53;99146.75;;;20.47;55.28
84795;BME280;75026;49.184;16.564;2023-12-28T10:43:04;99142.72;;;20.48;55.41
84795;BME280;75026;49.184;16.564;2023-12-28T10:46:07;99135.88;;;20.49;55.32
84795;BME280;75026;49.184;16.564;2023-12-28T10:49:15;99146.75;;;20.47;55.19
84795;BME280;75026;49.184;16.564;2023-12-28T10:52:17;99143.94;;;20.47;55.25
84795;BME280;75026;49.184;16.564;2023-12-28T10:55:31;99141.72;;;20.38;55.24
84795;BME280;75026;49.184;16.564;2023-12-28T10:58:51;99153.97;;;20.44;55.27
84795;BME280;75026;49.184;16.564;2023-12-28T11:01:55;99136.34;;;20.47;55.11
84795;BME280;75026;49.184;16.564;2023-12-28T11:04:56;99126.34;;;20.46;55.50
84795;BME280;75026;49.184;16.564;2023-12-28T11:08:00;99116.31;;;20.49;55.27
84795;BME280;75026;49.184;16.564;2023-12-28T11:11:01;99123.91;;;20.48;55.31
84795;BME280;75026;49.184;16.564;2023-12-28T11:14:03;99111.94;;;20.48;55.57
84795;BME280;75026;49.184;16.564;2023-12-28T11:17:05;99109.94;;;20.48;55.33
84795;BME280;75026;49.184;16.564;2023-12-28T11:20:06;99106.31;;;20.51;55.09
84795;BME280;75026;49.184;16.564;2023-12-28T11:23:07;99108.31;;;20.51;55.12
84795;BME280;75026;49.184;16.564;2023-12-28T11:26:21;99109.56;;;20.46;55.20
84795;BME280;75026;49.184;16.564;2023-12-28T11:29:22;99093.94;;;20.49;55.33
84795;BME280;75026;49.184;16.564;2023-12-28T11:32:24;99095.94;;;20.48;55.43
84795;BME280;75026;49.184;16.564;2023-12-28T11:35:34;99082.41;;;20.47;55.21
84795;BME280;75026;49.184;16.564;2023-12-28T11:38:38;99077.56;;;20.51;55.22
84795;BME280;75026;49.184;16.564;2023-12-28T11:41:42;99076.78;;;20.50;55.12
84795;BME280;75026;49.184;16.564;2023-12-28T11:44:43;99065.19;;;20.48;55.32
84795;BME280;75026;49.184;16.564;2023-12-28T11:47:44;99052.81;;;20.49;55.22
84795;BME280;75026;49.184;16.564;2023-12-28T11:50:45;99051.22;;;20.48;55.20
84795;BME280;75026;49.184;16.564;2023-12-28T11:53:46;99041.63;;;20.49;55.35
84795;BME280;75026;49.184;16.564;2023-12-28T11:56:48;99039.25;;;20.48;55.32
84795;BME280;75026;49.184;16.564;2023-12-28T11:59:53;99034.06;;;20.46;55.14
84795;BME280;75026;49.184;16.564;2023-12-28T12:02:55;99034.44;;;20.48;55.20
84795;BME280;75026;49.184;16.564;2023-12-28T12:05:57;99039.25;;;20.48;55.25
84795;BME280;75026;49.184;16.564;2023-12-28T12:08:58;99036.03;;;20.49;55.25
84795;BME280;75026;49.184;16.564;2023-12-28T12:12:00;99028.06;;;20.48;55.24
84795;BME280;75026;49.184;16.564;2023-12-28T12:15:01;99017.59;;;20.52;55.22
84795;BME280;75026;49.184;16.564;2023-12-28T12:18:01;99015.63;;;20.49;55.28
84795;BME280;75026;49.184;16.564;2023-12-28T12:21:03;99025.63;;;20.50;55.22
84795;BME280;75026;49.184;16.564;2023-12-28T12:24:04;99026.81;;;20.49;55.21
84795;BME280;75026;49.184;16.564;2023-12-28T12:27:05;99022.41;;;20.51;55.16
84795;BME280;75026;49.184;16.564;2023-12-28T12:30:06;99020.84;;;20.50;55.18
84795;BME280;75026;49.184;16.564;2023-12-28T12:33:07;99026.81;;;20.49;55.15
84795;BME280;75026;49.184;16.564;2023-12-28T12:36:10;99032.88;;;20.47;55.30
84795;BME280;75026;49.184;16.564;2023-12-28T12:39:11;99032.41;;;20.49;55.21
84795;BME280;75026;49.184;16.564;2023-12-28T12:42:13;99039.97;;;20.52;55.13
84795;BME280;75026;49.184;16.564;2023-12-28T12:45:14;99029.63;;;20.49;55.26
84795;BME280;75026;49.184;16.564;2023-12-28T12:48:15;99035.22;;;20.49;55.44
84795;BME280;75026;49.184;16.564;2023-12-28T12:51:17;99032.81;;;20.51;55.21
84795;BME280;75026;49.184;16.564;2023-12-28T12:54:18;99028.47;;;20.46;55.29
84795;BME280;75026;49.184;16.564;2023-12-28T12:57:19;99029.63;;;20.49;55.11
84795;BME280;75026;49.184;16.564;2023-12-28T13:00:20;99028.91;;;20.45;55.19
84795;BME280;75026;49.184;16.564;2023-12-28T13:03:21;99042.41;;;20.50;55.26
84795;BME280;75026;49.184;16.564;2023-12-28T13:06:22;99040.81;;;20.49;55.17
84795;BME280;75026;49.184;16.564;2023-12-28T13:09:24;99039.97;;;20.52;55.17
84795;BME280;75026;49.184;16.564;2023-12-28T13:12:24;99026.03;;;20.48;55.40
84795;BME280;75026;49.184;16.564;2023-12-28T13:15:25;99034.00;;;20.50;55.26
84795;BME280;75026;49.184;16.564;2023-12-28T13:18:26;99029.63;;;20.49;55.19
84795;BME280;75026;49.184;16.564;2023-12-28T13:21:26;99021.22;;;20.49;55.25
84795;BME280;75026;49.184;16.564;2023-12-28T13:24:27;99024.03;;;20.49;55.32
84795;BME280;75026;49.184;16.564;2023-12-28T13:27:28;99009.34;;;20.45;55.31
84795;BME280;75026;49.184;16.564;2023-12-28T13:30:29;99005.69;;;20.48;55.19
84795;BME280;75026;49.184;16.564;2023-12-28T13:33:30;99005.69;;;20.48;55.26
84795;BME280;75026;49.184;16.564;2023-12-28T13:36:30;99004.47;;;20.49;55.14
84795;BME280;75026;49.184;16.564;2023-12-28T13:39:31;99010.50;;;20.47;55.11
84795;BME280;75026;49.184;16.564;2023-12-28T13:42:33;99010.03;;;20.49;55.02
84795;BME280;75026;49.184;16.564;2023-12-28T13:45:34;99005.31;;;20.46;55.16
84795;BME280;75026;49.184;16.564;2023-12-28T13:48:34;99012.94;;;20.45;55.37
84795;BME280;75026;49.184;16.564;2023-12-28T13:51:36;99021.69;;;20.47;55.16
84795;BME280;75026;49.184;16.564;2023-12-28T13:54:37;99022.47;;;20.48;55.25
84795;BME280;75026;49.184;16.564;2023-12-28T13:57:38;99021.75;;;20.44;55.13
84795;BME280;75026;49.184;16.564;2023-12-28T14:00:39;99020.03;;;20.50;55.18
84795;BME280;75026;49.184;16.564;2023-12-28T14:03:40;99020.19;;;20.43;55.23
84795;BME280;75026;49.184;16.564;2023-12-28T14:06:41;99028.13;;;20.44;55.28
84795;BME280;75026;49.184;16.564;2023-12-28T14:09:41;99032.94;;;20.44;55.21
84795;BME280;75026;49.184;16.564;2023-12-28T14:12:42;99037.69;;;20.47;55.22
84795;BME280;75026;49.184;16.564;2023-12-28T14:15:43;99036.09;;;20.46;55.22
84795;BME280;75026;49.184;16.564;2023-12-28T14:18:43;99026.50;;;20.47;55.29
84795;BME280;75026;49.184;16.564;2023-12-28T14:21:44;99022.81;;;20.50;55.20
84795;BME280;75026;49.184;16.564;2023-12-28T14:24:45;99022.09;;;20.46;55.20
84795;BME280;75026;49.184;16.564;2023-12-28T14:27:47;99036.88;;;20.46;55.20
84795;BME280;75026;49.184;16.564;2023-12-28T14:30:47;99034.88;;;20.47;55.32
84795;BME280;75026;49.184;16.564;2023-12-28T14:33:48;99036.44;;;20.48;55.08
84795;BME280;75026;49.184;16.564;2023-12-28T14:36:52;99037.69;;;20.47;55.21
84795;BME280;75026;49.184;16.564;2023-12-28T14:39:53;99031.38;;;20.43;55.19
84795;BME280;75026;49.184;16.564;2023-12-28T14:42:54;99026.91;;;20.45;55.18
84795;BME280;75026;49.184;16.564;2023-12-28T14:45:54;99034.50;;;20.45;55.25
84795;BME280;75026;49.184;16.564;2023-12-28T14:48:56;99040.09;;;20.45;55.28
84795;BME280;75026;49.184;16.564;2023-12-28T14:51:56;99036.88;;;20.46;55.26
84795;BME280;75026;49.184;16.564;2023-12-28T14:54:57;99043.34;;;20.43;55.29
84795;BME280;75026;49.184;16.564;2023-12-28T14:57:58;99044.47;;;20.46;55.09
84795;BME280;75026;49.184;16.564;2023-12-28T15:00:59;99045.69;;;20.45;55.03
84795;BME280;75026;49.184;16.564;2023-12-28T15:04:00;99042.91;;;20.45;55.35
84795;BME280;75026;49.184;16.564;2023-12-28T15:07:01;99046.47;;;20.45;55.20
84795;BME280;75026;49.184;16.564;2023-12-28T15:10:02;99030.50;;;20.46;55.21
84795;BME280;75026;49.184;16.564;2023-12-28T15:13:03;99027.69;;;20.46;55.30
84795;BME280;75026;49.184;16.564;2023-12-28T15:16:04;99021.75;;;20.44;55.28
84795;BME280;75026;49.184;16.564;2023-12-28T15:19:05;99028.91;;;20.45;55.08
84795;BME280;75026;49.184;16.564;2023-12-28T15:22:07;99027.78;;;20.42;55.20
84795;BME280;75026;49.184;16.564;2023-12-28T15:25:08;99016.97;;;20.44;55.16
84795;BME280;75026;49.184;16.564;2023-12-28T15:28:09;99017.75;;;20.45;55.15
84795;BME280;75026;49.184;16.564;2023-12-28T15:31:10;99011.28;;;20.48;55.11
84795;BME280;75026;49.184;16.564;2023-12-28T15:34:11;99007.34;;;20.45;55.07
84795;BME280;75026;49.184;16.564;2023-12-28T15:37:11;99013.72;;;20.46;55.10
84795;BME280;75026;49.184;16.564;2023-12-28T15:40:12;99009.00;;;20.43;55.08
84795;BME280;75026;49.184;16.564;2023-12-28T15:43:13;99009.72;;;20.47;55.24
84795;BME280;75026;49.184;16.564;2023-12-28T15:46:14;99006.09;;;20.46;55.23
84795;BME280;75026;49.184;16.564;2023-12-28T15:49:15;99011.00;;;20.42;55.33